createdAt,value
2023-07-06T00:02:51.678Z,98049.19
2023-07-06T00:06:57.189Z,98044.25
2023-07-06T00:10:59.449Z,98047.31
2023-07-06T00:15:01.570Z,98040.88
2023-07-06T00:19:04.912Z,98036.31
2023-07-06T00:23:09.392Z,98027.38
2023-07-06T00:27:11.486Z,98033.59
2023-07-06T00:31:22.231Z,98041.25
2023-07-06T00:35:25.432Z,98043.63
2023-07-06T00:39:27.487Z,98043.53
2023-07-06T00:43:51.670Z,98049.56
2023-07-06T00:47:57.861Z,98050.13
2023-07-06T00:52:02.023Z,98045.41
2023-07-06T00:56:06.031Z,98045.13
2023-07-06T01:00:08.629Z,98037.63
2023-07-06T01:04:14.708Z,98031.97
2023-07-06T01:08:21.400Z,98041.94
2023-07-06T01:12:25.553Z,98038.72
2023-07-06T01:16:39.819Z,98040.09
2023-07-06T01:21:20.312Z,98038.84
2023-07-06T01:25:33.249Z,98036.56
2023-07-06T01:30:05.048Z,98047.47
2023-07-06T01:34:22.041Z,98043.75
2023-07-06T01:38:24.266Z,98041.06
2023-07-06T01:42:33.413Z,98049.38
2023-07-06T01:46:35.524Z,98046.00
2023-07-06T01:50:52.414Z,98041.06
2023-07-06T01:55:10.268Z,98050.09
2023-07-06T01:59:18.175Z,98050.16
2023-07-06T02:03:21.731Z,98050.94
2023-07-06T02:07:24.643Z,98049.81
2023-07-06T02:11:26.723Z,98059.50
2023-07-06T02:15:29.634Z,98050.41
2023-07-06T02:19:33.418Z,98068.38
2023-07-06T02:23:35.768Z,98066.25
2023-07-06T02:27:37.871Z,98073.78
2023-07-06T02:31:39.992Z,98072.78
2023-07-06T02:35:43.206Z,98078.22
2023-07-06T02:39:45.804Z,98065.38
2023-07-06T02:43:47.846Z,98066.41
2023-07-06T02:47:49.946Z,98076.56
2023-07-06T02:51:53.143Z,98075.59
2023-07-06T02:55:55.716Z,98066.13
2023-07-06T02:59:58.092Z,98071.13
2023-07-06T03:04:00.169Z,98079.50
2023-07-06T03:08:03.615Z,98073.84
2023-07-06T03:12:06.894Z,98077.81
2023-07-06T03:16:10.114Z,98080.38
2023-07-06T03:20:15.408Z,98076.97
2023-07-06T03:24:18.063Z,98075.66
2023-07-06T03:28:21.745Z,98081.78
2023-07-06T03:32:26.355Z,98069.16
2023-07-06T03:36:28.490Z,98081.66
2023-07-06T03:40:31.769Z,98084.28
2023-07-06T03:44:33.864Z,98079.78
2023-07-06T03:48:35.922Z,98080.22
2023-07-06T03:52:38.944Z,98085.78
2023-07-06T03:56:41.044Z,98080.66
2023-07-06T04:00:43.206Z,98077.81
2023-07-06T04:04:45.270Z,98079.25
2023-07-06T04:08:47.741Z,98088.34
2023-07-06T04:12:50.655Z,98065.47
2023-07-06T04:16:55.515Z,98065.09
2023-07-06T04:20:59.665Z,98084.66
2023-07-06T04:25:01.789Z,98078.75
2023-07-06T04:29:05.449Z,98080.94
2023-07-06T04:33:10.806Z,98081.19
2023-07-06T04:37:13.688Z,98081.84
2023-07-06T04:41:16.360Z,98086.03
2023-07-06T04:45:19.372Z,98076.66
2023-07-06T04:49:21.852Z,98074.63
2023-07-06T04:53:24.555Z,98081.94
2023-07-06T04:57:26.625Z,98089.53
2023-07-06T05:01:28.662Z,98085.91
2023-07-06T05:05:46.286Z,98090.16
2023-07-06T05:09:51.318Z,98088.28
2023-07-06T05:13:53.393Z,98096.31
2023-07-06T05:17:55.783Z,98092.97
2023-07-06T05:21:58.154Z,98095.72
2023-07-06T05:26:04.092Z,98096.06
2023-07-06T05:30:07.147Z,98100.47
2023-07-06T05:34:09.528Z,98103.81
2023-07-06T05:38:11.847Z,98096.69
2023-07-06T05:42:14.407Z,98104.06
2023-07-06T05:46:16.452Z,98105.63
2023-07-06T05:50:18.594Z,98105.88
2023-07-06T05:54:20.643Z,98107.81
2023-07-06T05:58:23.236Z,98112.75
2023-07-06T06:02:36.218Z,98117.72
2023-07-06T06:06:51.627Z,98118.94
2023-07-06T06:10:53.736Z,98120.56
2023-07-06T06:14:56.075Z,98133.28
2023-07-06T06:18:58.197Z,98134.91
2023-07-06T06:23:00.934Z,98140.50
2023-07-06T06:27:03.279Z,98143.44
2023-07-06T06:31:05.408Z,98136.88
2023-07-06T06:35:25.498Z,98144.16
2023-07-06T06:39:27.572Z,98148.31
2023-07-06T06:43:29.696Z,98150.09
2023-07-06T06:47:31.916Z,98150.88
2023-07-06T06:51:34.094Z,98142.47
2023-07-06T06:55:36.188Z,98152.91
2023-07-06T06:59:38.304Z,98152.16
2023-07-06T07:03:40.761Z,98150.44
2023-07-06T07:07:43.138Z,98149.59
2023-07-06T07:11:45.214Z,98147.38
2023-07-06T07:15:47.421Z,98154.91
2023-07-06T07:19:50.055Z,98155.44
2023-07-06T07:23:52.149Z,98155.81
2023-07-06T07:27:55.750Z,98150.34
2023-07-06T07:31:57.871Z,98162.09
2023-07-06T07:36:01.796Z,98162.00
2023-07-06T07:40:06.347Z,98160.09
2023-07-06T07:44:09.955Z,98162.41
2023-07-06T07:48:11.997Z,98161.72
2023-07-06T07:52:14.963Z,98163.44
2023-07-06T07:56:17.651Z,98159.06
2023-07-06T08:00:21.527Z,98157.66
2023-07-06T08:04:23.747Z,98166.19
2023-07-06T08:08:26.550Z,98155.41
2023-07-06T08:12:28.654Z,98164.97
2023-07-06T08:16:33.602Z,98175.59
2023-07-06T08:20:58.410Z,98166.63
2023-07-06T08:24:58.515Z,98158.19
2023-07-06T08:29:00.572Z,98171.47
2023-07-06T08:33:02.828Z,98175.09
2023-07-06T08:37:05.294Z,98179.94
2023-07-06T08:41:30.823Z,98173.25
2023-07-06T08:45:43.322Z,98178.81
2023-07-06T08:49:46.706Z,98174.31
2023-07-06T08:53:56.134Z,98170.56
2023-07-06T08:57:58.612Z,98184.44
2023-07-06T09:02:21.922Z,98182.84
2023-07-06T09:06:27.373Z,98174.50
2023-07-06T09:10:29.932Z,98179.13
2023-07-06T09:14:32.584Z,98172.56
2023-07-06T09:18:34.671Z,98178.69
2023-07-06T09:22:41.279Z,98186.34
2023-07-06T09:26:45.713Z,98185.44
2023-07-06T09:30:52.132Z,98177.72
2023-07-06T09:35:05.935Z,98185.06
2023-07-06T09:39:15.451Z,98187.06
2023-07-06T09:43:28.870Z,98183.22
2023-07-06T09:47:34.572Z,98189.88
2023-07-06T09:51:45.147Z,98174.41
2023-07-06T09:55:47.212Z,98183.72
2023-07-06T09:59:50.478Z,98190.03
2023-07-06T10:04:22.082Z,98182.31
2023-07-06T10:09:04.506Z,98173.78
2023-07-06T10:13:17.298Z,98171.16
2023-07-06T10:17:35.703Z,98170.28
2023-07-06T10:21:48.042Z,98175.50
2023-07-06T10:26:04.242Z,98180.31
2023-07-06T10:30:13.755Z,98168.59
2023-07-06T10:34:24.388Z,98172.69
2023-07-06T10:38:27.018Z,98170.44
2023-07-06T10:42:32.902Z,98172.81
2023-07-06T10:46:37.511Z,98175.22
2023-07-06T10:50:48.866Z,98163.16
2023-07-06T10:54:51.677Z,98169.00
2023-07-06T10:59:01.726Z,98169.44
2023-07-06T11:03:05.453Z,98174.69
2023-07-06T11:07:12.832Z,98160.91
2023-07-06T11:11:22.047Z,98168.06
2023-07-06T11:16:01.318Z,98176.41
2023-07-06T11:20:16.162Z,98172.56
2023-07-06T11:24:23.531Z,98178.34
2023-07-06T11:28:26.192Z,98183.00
2023-07-06T11:32:38.070Z,98172.00
2023-07-06T11:36:56.578Z,98167.91
2023-07-06T11:41:27.387Z,98173.69
2023-07-06T11:45:41.163Z,98166.22
2023-07-06T11:49:46.348Z,98169.44
2023-07-06T11:53:53.597Z,98166.19
2023-07-06T11:58:06.361Z,98172.34
2023-07-06T12:02:18.896Z,98167.91
2023-07-06T12:06:21.837Z,98158.59
2023-07-06T12:10:24.396Z,98154.94
2023-07-06T12:14:28.394Z,98157.38
2023-07-06T12:18:33.463Z,98152.44
2023-07-06T12:22:35.508Z,98148.06
2023-07-06T12:26:43.913Z,98148.75
2023-07-06T12:30:50.404Z,98144.78
2023-07-06T12:34:54.605Z,98145.44
2023-07-06T12:38:57.751Z,98140.22
2023-07-06T12:43:01.475Z,98145.94
2023-07-06T12:47:23.477Z,98149.50
2023-07-06T12:51:26.583Z,98139.38
2023-07-06T12:55:33.307Z,98136.03
2023-07-06T12:59:37.733Z,98140.25
2023-07-06T13:03:47.527Z,98136.31
2023-07-06T13:07:51.963Z,98139.94
2023-07-06T13:12:08.934Z,98131.41
2023-07-06T13:16:15.369Z,98115.56
2023-07-06T13:20:17.807Z,98121.31
2023-07-06T13:24:22.620Z,98112.59
2023-07-06T13:28:24.780Z,98117.66
2023-07-06T13:32:28.655Z,98107.78
2023-07-06T13:36:30.729Z,98119.41
2023-07-06T13:40:35.439Z,98108.75
2023-07-06T13:44:37.724Z,98105.06
2023-07-06T13:48:41.034Z,98102.25
2023-07-06T13:52:43.135Z,98104.81
2023-07-06T13:56:46.496Z,98116.38
2023-07-06T14:00:49.393Z,98103.25
2023-07-06T14:04:51.441Z,98096.91
2023-07-06T14:08:53.532Z,98087.31
2023-07-06T14:12:55.596Z,98088.59
2023-07-06T14:16:57.705Z,98102.91
2023-07-06T14:21:06.262Z,98096.03
2023-07-06T14:25:23.138Z,98096.38
2023-07-06T14:29:27.905Z,98092.22
2023-07-06T14:33:29.971Z,98098.16
2023-07-06T14:37:32.302Z,98093.81
2023-07-06T14:41:34.342Z,98091.09
2023-07-06T14:45:37.512Z,98105.53
2023-07-06T14:49:40.198Z,98095.56
2023-07-06T14:53:42.733Z,98098.53
2023-07-06T14:57:45.464Z,98107.03
2023-07-06T15:01:47.583Z,98102.22
2023-07-06T15:05:51.452Z,98102.06
2023-07-06T15:09:53.639Z,98102.78
2023-07-06T15:13:55.799Z,98103.81
2023-07-06T15:17:57.915Z,98102.28
2023-07-06T15:22:00.082Z,98100.06
2023-07-06T15:26:02.131Z,98090.66
2023-07-06T15:30:04.951Z,98099.78
2023-07-06T15:34:07.089Z,98092.06
2023-07-06T15:38:09.222Z,98083.94
2023-07-06T15:42:11.288Z,98075.91
2023-07-06T15:46:13.388Z,98074.22
2023-07-06T15:50:17.066Z,98070.75
2023-07-06T15:54:19.136Z,98073.75
2023-07-06T15:58:21.186Z,98070.75
2023-07-06T16:02:23.454Z,98069.31
2023-07-06T16:06:28.616Z,98073.16
2023-07-06T16:10:30.860Z,98071.84
2023-07-06T16:14:32.929Z,98068.38
2023-07-06T16:18:35.046Z,98069.06
2023-07-06T16:22:37.166Z,98072.78
2023-07-06T16:26:39.405Z,98070.72
2023-07-06T16:30:41.499Z,98074.84
2023-07-06T16:34:44.212Z,98072.41
2023-07-06T16:38:46.794Z,98069.91
2023-07-06T16:42:48.858Z,98072.13
2023-07-06T16:46:50.973Z,98072.84
2023-07-06T16:50:56.860Z,98080.63
2023-07-06T16:54:59.089Z,98077.88
2023-07-06T16:59:01.142Z,98080.16
2023-07-06T17:03:03.366Z,98077.94
2023-07-06T17:07:06.458Z,98089.81
2023-07-06T17:11:10.585Z,98097.91
2023-07-06T17:15:12.629Z,98100.44
2023-07-06T17:19:14.728Z,98102.88
2023-07-06T17:23:16.820Z,98099.81
2023-07-06T17:27:19.068Z,98107.53
2023-07-06T17:31:21.415Z,98109.22
2023-07-06T17:35:23.607Z,98104.19
2023-07-06T17:39:25.729Z,98110.81
2023-07-06T17:43:28.468Z,98110.47
2023-07-06T17:47:31.374Z,98117.66
2023-07-06T17:51:33.420Z,98116.25
2023-07-06T17:55:35.560Z,98118.53
2023-07-06T17:59:37.698Z,98123.03
2023-07-06T18:03:39.818Z,98118.84
2023-07-06T18:07:42.328Z,98114.94
2023-07-06T18:11:44.384Z,98116.66
2023-07-06T18:15:47.210Z,98123.00
2023-07-06T18:19:49.481Z,98119.50
2023-07-06T18:23:51.524Z,98118.66
2023-07-06T18:27:54.304Z,98126.53
2023-07-06T18:31:56.569Z,98130.31
2023-07-06T18:35:58.783Z,98132.16
2023-07-06T18:40:00.984Z,98125.53
2023-07-06T18:44:03.227Z,98129.59
2023-07-06T18:48:05.761Z,98133.44
2023-07-06T18:52:08.128Z,98142.09
2023-07-06T18:56:10.232Z,98152.09
2023-07-06T19:00:12.685Z,98150.31
2023-07-06T19:04:14.879Z,98149.31
2023-07-06T19:08:16.953Z,98156.81
2023-07-06T19:12:19.016Z,98161.75
2023-07-06T19:16:21.668Z,98165.19
2023-07-06T19:20:23.758Z,98165.25
2023-07-06T19:24:25.946Z,98172.34
2023-07-06T19:28:28.032Z,98177.09
2023-07-06T19:32:30.128Z,98181.69
2023-07-06T19:36:32.621Z,98176.59
2023-07-06T19:40:34.724Z,98185.91
2023-07-06T19:44:36.770Z,98188.53
2023-07-06T19:48:41.173Z,98195.00
2023-07-06T19:52:43.342Z,98207.16
2023-07-06T19:56:45.400Z,98209.25
2023-07-06T20:00:50.425Z,98212.31
2023-07-06T20:04:58.956Z,98215.81
2023-07-06T20:09:01.130Z,98223.91
2023-07-06T20:13:03.175Z,98230.59
2023-07-06T20:17:05.477Z,98231.66
2023-07-06T20:21:08.010Z,98242.75
2023-07-06T20:25:11.754Z,98234.19
2023-07-06T20:29:15.111Z,98244.03
2023-07-06T20:33:17.758Z,98237.63
2023-07-06T20:37:19.797Z,98240.28
2023-07-06T20:41:21.873Z,98246.84
2023-07-06T20:45:23.928Z,98243.47
2023-07-06T20:49:26.048Z,98247.28
2023-07-06T20:53:28.502Z,98247.88
2023-07-06T20:57:30.550Z,98253.81
2023-07-06T21:01:32.660Z,98261.50
2023-07-06T21:05:34.818Z,98253.09
2023-07-06T21:09:37.788Z,98264.75
2023-07-06T21:13:40.728Z,98267.25
2023-07-06T21:17:42.869Z,98280.16
2023-07-06T21:21:46.228Z,98275.44
2023-07-06T21:25:48.291Z,98281.53
2023-07-06T21:29:50.415Z,98282.09
2023-07-06T21:33:52.521Z,98283.25
2023-07-06T21:37:54.571Z,98287.41
2023-07-06T21:41:56.651Z,98289.38
2023-07-06T21:45:58.808Z,98288.03
2023-07-06T21:50:00.931Z,98285.03
2023-07-06T21:54:03.408Z,98290.69
2023-07-06T21:58:05.502Z,98286.00
2023-07-06T22:02:07.595Z,98293.63
2023-07-06T22:06:12.199Z,98284.50
2023-07-06T22:10:15.539Z,98299.78
2023-07-06T22:14:17.635Z,98301.09
2023-07-06T22:18:19.667Z,98312.09
2023-07-06T22:22:21.766Z,98308.53
2023-07-06T22:26:23.853Z,98312.41
2023-07-06T22:30:25.907Z,98313.38
2023-07-06T22:34:27.943Z,98310.19
2023-07-06T22:38:29.985Z,98310.44
2023-07-06T22:42:32.077Z,98308.63
2023-07-06T22:46:34.324Z,98316.59
2023-07-06T22:50:36.745Z,98321.69
2023-07-06T22:54:38.807Z,98327.50
2023-07-06T22:58:40.902Z,98317.59
2023-07-06T23:02:43.620Z,98320.94
2023-07-06T23:06:48.459Z,98326.03
2023-07-06T23:10:51.647Z,98327.28
2023-07-06T23:14:56.722Z,98326.31
2023-07-06T23:18:59.772Z,98329.75
2023-07-06T23:23:01.910Z,98329.53
2023-07-06T23:27:04.324Z,98334.06
2023-07-06T23:31:11.250Z,98330.63
2023-07-06T23:35:15.224Z,98332.06
2023-07-06T23:39:17.387Z,98340.63
2023-07-06T23:43:19.508Z,98337.06
2023-07-06T23:47:21.645Z,98335.91
2023-07-06T23:51:25.013Z,98342.81
2023-07-06T23:55:27.136Z,98342.66
2023-07-06T23:59:29.180Z,98339.66
